createdAt,value
2023-01-13T00:04:55.111Z,100170.69
2023-01-13T00:09:58.703Z,100151.13
2023-01-13T00:15:03.209Z,100007.06
2023-01-13T00:20:07.449Z,99956.44
2023-01-13T00:25:10.909Z,100161.91
2023-01-13T00:30:15.967Z,99964.50
2023-01-13T00:35:19.069Z,99953.31
2023-01-13T00:40:22.112Z,99741.78
2023-01-13T00:45:26.410Z,99892.72
2023-01-13T00:50:31.401Z,100084.56
2023-01-13T00:55:34.373Z,99749.06
2023-01-13T01:00:38.625Z,100164.22
2023-01-13T01:05:41.539Z,100169.25
2023-01-13T01:10:44.464Z,100156.59
2023-01-13T01:15:49.785Z,100151.13
2023-01-13T01:20:53.215Z,100099.72
2023-01-13T01:25:56.487Z,100155.88
2023-01-13T01:31:02.166Z,99933.84
2023-01-13T01:36:05.574Z,100042.13
2023-01-13T01:41:08.771Z,100184.97
2023-01-13T01:46:13.110Z,99958.19
2023-01-13T01:51:16.680Z,100071.59
2023-01-13T01:56:22.392Z,100191.00
2023-01-13T02:01:26.930Z,100186.31
2023-01-13T02:06:31.173Z,100178.88
2023-01-13T02:11:53.624Z,100182.91
2023-01-13T02:17:12.099Z,100196.69
2023-01-13T02:22:33.718Z,100128.34
2023-01-13T02:28:27.186Z,100190.91
2023-01-13T02:33:43.275Z,100199.50
2023-01-13T02:38:52.370Z,100179.22
2023-01-13T02:44:08.701Z,100189.66
2023-01-13T02:49:19.702Z,100170.53
2023-01-13T02:54:26.788Z,100177.97
2023-01-13T02:59:32.162Z,100179.66
2023-01-13T03:04:52.079Z,100171.09
2023-01-13T03:10:04.642Z,100159.63
2023-01-13T03:15:14.551Z,100171.78
2023-01-13T03:20:26.597Z,100162.28
2023-01-13T03:25:32.546Z,100118.19
2023-01-13T03:30:41.846Z,100136.00
2023-01-13T03:35:50.289Z,100152.47
2023-01-13T03:40:57.878Z,100153.72
2023-01-13T03:46:05.822Z,100098.84
2023-01-13T03:51:17.196Z,100127.13
2023-01-13T03:56:26.707Z,100118.09
2023-01-13T04:01:36.112Z,100130.91
2023-01-13T04:06:48.288Z,100149.72
2023-01-13T04:11:56.730Z,100112.56
2023-01-13T04:16:59.404Z,100154.66
2023-01-13T04:22:03.372Z,100157.22
2023-01-13T04:27:06.205Z,100145.38
2023-01-13T04:32:08.865Z,100163.09
2023-01-13T04:37:12.727Z,100160.72
2023-01-13T04:42:15.667Z,100168.13
2023-01-13T04:47:18.270Z,100174.22
2023-01-13T04:52:22.139Z,100167.44
2023-01-13T04:57:24.683Z,100156.88
2023-01-13T05:02:27.241Z,100159.72
2023-01-13T05:07:31.137Z,100156.78
2023-01-13T05:12:51.473Z,100167.88
2023-01-13T05:17:54.010Z,100157.00
2023-01-13T05:23:15.759Z,100165.97
2023-01-13T05:28:18.404Z,100173.91
2023-01-13T05:33:21.445Z,100184.53
2023-01-13T05:38:25.345Z,100184.13
2023-01-13T05:43:28.688Z,100195.84
2023-01-13T05:48:33.712Z,100186.16
2023-01-13T05:53:37.656Z,100180.34
2023-01-13T05:58:40.220Z,100182.88
2023-01-13T06:03:43.183Z,100182.06
2023-01-13T06:08:47.068Z,100190.06
2023-01-13T06:13:49.591Z,100203.16
2023-01-13T06:18:52.521Z,100198.09
2023-01-13T06:23:56.867Z,100197.44
2023-01-13T06:28:59.420Z,100192.47
2023-01-13T06:34:08.365Z,100211.81
2023-01-13T06:39:17.147Z,100199.34
2023-01-13T06:44:23.839Z,100214.69
2023-01-13T06:49:26.408Z,100216.47
2023-01-13T06:54:30.327Z,100216.16
2023-01-13T06:59:34.291Z,100231.25
2023-01-13T07:04:36.846Z,100214.97
2023-01-13T07:09:40.960Z,100217.84
2023-01-13T07:15:13.340Z,100219.31
2023-01-13T07:20:16.759Z,100207.94
2023-01-13T07:25:20.636Z,100219.88
2023-01-13T07:30:23.176Z,100210.25
2023-01-13T07:35:25.729Z,100213.75
2023-01-13T07:40:29.591Z,100229.56
2023-01-13T07:45:32.207Z,100233.16
2023-01-13T07:50:34.827Z,100240.56
2023-01-13T07:55:43.572Z,100219.53
2023-01-13T08:00:46.229Z,100249.22
2023-01-13T08:05:49.328Z,100252.78
2023-01-13T08:10:53.247Z,100247.28
2023-01-13T08:16:01.589Z,100260.63
2023-01-13T08:21:06.041Z,100263.44
2023-01-13T08:26:12.830Z,100263.97
2023-01-13T08:31:17.323Z,100268.94
2023-01-13T08:36:20.308Z,100274.63
2023-01-13T08:41:38.184Z,100279.41
2023-01-13T08:46:42.441Z,100286.06
2023-01-13T08:51:45.465Z,100265.88
2023-01-13T08:56:49.484Z,100301.38
2023-01-13T09:01:52.221Z,100286.06
2023-01-13T09:06:55.193Z,100290.38
2023-01-13T09:12:16.646Z,100292.50
2023-01-13T09:17:19.374Z,100295.13
2023-01-13T09:22:26.854Z,100311.50
2023-01-13T09:27:30.962Z,100314.44
2023-01-13T09:32:34.173Z,100302.31
2023-01-13T09:37:38.737Z,100298.53
2023-01-13T09:43:05.518Z,100295.44
2023-01-13T09:48:14.491Z,100288.38
2023-01-13T09:53:22.595Z,100307.28
2023-01-13T09:58:26.865Z,100314.59
2023-01-13T10:03:30.835Z,100311.09
2023-01-13T10:08:35.386Z,100317.13
2023-01-13T10:13:39.516Z,100310.16
2023-01-13T10:18:51.388Z,100331.63
2023-01-13T10:24:07.150Z,100331.16
2023-01-13T10:29:22.072Z,100334.91
2023-01-13T10:34:27.714Z,100338.78
2023-01-13T10:39:40.379Z,100321.94
2023-01-13T10:44:53.105Z,100323.00
2023-01-13T10:50:18.252Z,100347.22
2023-01-13T10:55:28.618Z,100349.63
2023-01-13T11:00:36.521Z,100364.47
2023-01-13T11:05:39.199Z,100351.63
2023-01-13T11:10:47.135Z,100364.31
2023-01-13T11:15:58.127Z,100370.03
2023-01-13T11:21:01.786Z,100365.00
2023-01-13T11:26:11.604Z,100374.50
2023-01-13T11:31:21.850Z,100363.44
2023-01-13T11:36:29.828Z,100384.06
2023-01-13T11:41:42.903Z,100384.03
2023-01-13T11:46:49.649Z,100396.94
2023-01-13T11:51:58.824Z,100416.81
2023-01-13T11:57:20.862Z,100426.78
2023-01-13T12:02:43.265Z,100434.78
2023-01-13T12:07:59.492Z,100429.09
2023-01-13T12:13:10.263Z,100426.13
2023-01-13T12:18:28.422Z,100415.97
2023-01-13T12:23:36.013Z,100425.19
2023-01-13T12:28:48.874Z,100420.19
2023-01-13T12:34:05.867Z,100440.81
2023-01-13T12:39:18.362Z,100427.72
2023-01-13T12:44:21.342Z,100440.84
2023-01-13T12:49:30.229Z,100431.66
2023-01-13T12:55:18.782Z,100430.50
2023-01-13T13:00:21.939Z,100425.00
2023-01-13T13:05:41.938Z,100451.09
2023-01-13T13:10:59.325Z,100448.69
2023-01-13T13:16:46.063Z,100459.94
2023-01-13T13:22:19.272Z,100481.41
2023-01-13T13:27:27.071Z,100478.72
2023-01-13T13:32:52.163Z,100484.34
2023-01-13T13:38:27.550Z,100500.78
2023-01-13T13:43:51.715Z,100496.03
2023-01-13T13:48:55.465Z,100520.19
2023-01-13T13:54:02.644Z,100527.53
2023-01-13T13:59:05.284Z,100541.19
2023-01-13T14:04:15.621Z,100555.22
2023-01-13T14:09:20.757Z,100553.03
2023-01-13T14:14:24.450Z,100548.47
2023-01-13T14:19:33.973Z,100563.97
2023-01-13T14:24:47.328Z,100577.00
2023-01-13T14:29:58.598Z,100585.63
2023-01-13T14:35:07.894Z,100573.56
2023-01-13T14:40:51.879Z,100597.72
2023-01-13T14:46:00.274Z,100603.47
2023-01-13T14:51:11.659Z,100623.19
2023-01-13T14:56:46.352Z,100628.25
2023-01-13T15:01:55.090Z,100621.78
2023-01-13T15:07:05.915Z,100634.78
2023-01-13T15:12:40.624Z,100647.25
2023-01-13T15:17:49.893Z,100657.41
2023-01-13T15:22:54.248Z,100686.44
2023-01-13T15:28:04.159Z,100689.97
2023-01-13T15:33:13.623Z,100695.88
2023-01-13T15:38:23.874Z,100702.06
2023-01-13T15:43:51.288Z,100707.25
2023-01-13T15:48:58.014Z,100722.09
2023-01-13T15:54:02.448Z,100724.72
2023-01-13T15:59:18.504Z,100741.78
2023-01-13T16:04:27.875Z,100735.38
2023-01-13T16:09:32.280Z,100751.16
2023-01-13T16:14:39.060Z,100758.78
2023-01-13T16:19:43.293Z,100764.16
2023-01-13T16:24:45.957Z,100761.22
2023-01-13T16:29:50.972Z,100793.91
2023-01-13T16:34:53.550Z,100762.84
2023-01-13T16:39:56.144Z,100804.88
2023-01-13T16:45:06.968Z,100802.03
2023-01-13T16:50:23.233Z,100814.44
2023-01-13T16:55:26.900Z,100822.28
2023-01-13T17:00:31.069Z,100831.47
2023-01-13T17:05:33.891Z,100821.25
2023-01-13T17:10:36.478Z,100856.22
2023-01-13T17:15:40.777Z,100854.50
2023-01-13T17:20:43.386Z,100852.38
2023-01-13T17:25:45.959Z,100869.06
2023-01-13T17:30:50.277Z,100877.78
2023-01-13T17:35:52.800Z,100884.84
2023-01-13T17:40:55.357Z,100889.78
2023-01-13T17:45:59.371Z,100884.97
2023-01-13T17:51:03.381Z,100888.28
2023-01-13T17:56:07.472Z,100895.88
2023-01-13T18:01:14.250Z,100904.00
2023-01-13T18:06:19.310Z,100911.94
2023-01-13T18:11:23.568Z,100905.72
2023-01-13T18:16:30.343Z,100924.00
2023-01-13T18:21:50.842Z,100922.91
2023-01-13T18:27:10.964Z,100941.19
2023-01-13T18:39:03.808Z,100948.34
2023-01-13T18:44:06.686Z,100954.53
2023-01-13T18:49:09.691Z,100957.03
2023-01-13T18:54:16.229Z,100967.75
2023-01-13T18:59:18.984Z,100953.31
2023-01-13T19:04:21.948Z,100968.41
2023-01-13T19:09:27.040Z,100966.84
2023-01-13T19:14:37.254Z,100986.09
2023-01-13T19:19:42.102Z,100989.16
2023-01-13T19:24:46.161Z,100991.94
2023-01-13T19:29:52.528Z,101007.94
2023-01-13T19:34:59.146Z,100992.13
2023-01-13T19:40:08.955Z,101016.19
2023-01-13T19:45:30.826Z,101030.56
2023-01-13T19:50:38.328Z,101030.63
2023-01-13T19:55:47.628Z,101041.13
2023-01-13T20:00:50.804Z,101034.44
2023-01-13T20:05:54.247Z,101041.31
2023-01-13T20:11:19.397Z,101065.34
2023-01-13T20:16:21.991Z,101056.41
2023-01-13T20:21:24.702Z,101023.38
2023-01-13T20:26:28.566Z,101061.44
2023-01-13T20:31:31.190Z,101073.13
2023-01-13T20:36:37.370Z,101002.84
2023-01-13T20:41:59.348Z,101095.69
2023-01-13T20:47:02.800Z,101091.91
2023-01-13T20:52:09.356Z,101089.53
2023-01-13T20:57:14.006Z,101100.47
2023-01-13T21:02:17.532Z,101109.09
2023-01-13T21:07:20.104Z,101108.63
2023-01-13T21:12:41.609Z,101119.16
2023-01-13T21:18:01.901Z,101134.16
2023-01-13T21:23:05.529Z,101118.00
2023-01-13T21:28:11.412Z,101096.97
2023-01-13T21:33:14.418Z,101137.91
2023-01-13T21:38:17.766Z,101143.03
2023-01-13T21:43:39.192Z,101149.00
2023-01-13T21:48:41.741Z,101152.41
2023-01-13T21:53:44.264Z,101143.47
2023-01-13T21:58:48.701Z,101159.63
2023-01-13T22:04:08.909Z,101167.75
2023-01-13T22:09:12.664Z,101166.03
2023-01-13T22:14:16.543Z,101161.84
2023-01-13T22:19:19.517Z,101165.66
2023-01-13T22:24:22.169Z,101176.16
2023-01-13T22:29:26.057Z,101179.31
2023-01-13T22:34:28.615Z,101195.66
2023-01-13T22:39:31.673Z,101148.50
2023-01-13T22:44:35.654Z,101215.72
2023-01-13T22:49:38.219Z,101216.09
2023-01-13T22:54:40.819Z,101212.53
2023-01-13T22:59:44.718Z,101213.53
2023-01-13T23:04:47.314Z,101214.53
2023-01-13T23:09:49.907Z,101222.25
2023-01-13T23:14:54.477Z,101218.63
2023-01-13T23:19:57.690Z,101230.50
2023-01-13T23:25:00.221Z,101238.31
2023-01-13T23:30:06.558Z,101247.31
2023-01-13T23:35:09.886Z,101247.19
2023-01-13T23:40:13.542Z,101268.84
2023-01-13T23:45:17.690Z,101257.25
2023-01-13T23:50:20.779Z,101252.06
2023-01-13T23:55:23.341Z,101241.13
